createdAt,value
2018-05-15T00:02:09.786Z,85.30
2018-05-15T00:04:37.314Z,84.80
2018-05-15T00:07:04.819Z,85.50
2018-05-15T00:09:33.119Z,85.10
2018-05-15T00:12:00.631Z,85.10
2018-05-15T00:14:28.157Z,85.30
2018-05-15T00:16:55.687Z,85.40
2018-05-15T00:19:23.219Z,85.50
2018-05-15T00:21:51.495Z,85.70
2018-05-15T00:24:19.810Z,86.00
2018-05-15T00:26:47.320Z,86.00
2018-05-15T00:29:15.624Z,86.40
2018-05-15T00:31:43.134Z,86.30
2018-05-15T00:34:10.667Z,86.00
2018-05-15T00:36:38.180Z,86.10
2018-05-15T00:39:05.714Z,88.00
2018-05-15T00:41:33.986Z,88.20
2018-05-15T00:44:01.510Z,88.10
2018-05-15T00:46:29.257Z,89.30
2018-05-15T00:48:56.782Z,89.40
2018-05-15T00:51:24.285Z,88.50
2018-05-15T00:53:51.828Z,88.10
2018-05-15T00:56:19.341Z,88.60
2018-05-15T00:58:47.630Z,88.30
2018-05-15T01:01:15.134Z,88.30
2018-05-15T01:03:42.663Z,88.80
2018-05-15T01:06:10.171Z,89.50
2018-05-15T01:08:38.468Z,89.40
2018-05-15T01:11:05.986Z,89.30
2018-05-15T01:13:34.634Z,90.40
2018-05-15T01:16:02.394Z,90.40
2018-05-15T01:18:29.926Z,90.50
2018-05-15T01:20:57.459Z,90.40
2018-05-15T01:23:25.750Z,90.80
2018-05-15T01:25:53.268Z,90.70
2018-05-15T01:28:20.794Z,90.90
2018-05-15T01:30:48.306Z,90.90
2018-05-15T01:33:16.605Z,91.30
2018-05-15T01:35:44.124Z,91.30
2018-05-15T01:38:12.435Z,91.70
2018-05-15T01:40:39.967Z,91.70
2018-05-15T01:43:08.259Z,92.40
2018-05-15T01:45:35.766Z,92.40
2018-05-15T01:48:03.300Z,92.40
2018-05-15T01:50:30.816Z,92.50
2018-05-15T01:52:59.115Z,94.00
2018-05-15T01:55:26.628Z,94.00
2018-05-15T01:57:54.150Z,94.80
2018-05-15T02:00:21.663Z,95.80
2018-05-15T02:02:49.175Z,96.10
2018-05-15T02:05:16.714Z,97.10
2018-05-15T02:07:44.227Z,97.80
2018-05-15T02:10:12.524Z,98.00
2018-05-15T02:12:40.036Z,98.00
2018-05-15T02:15:07.571Z,97.70
2018-05-15T02:17:35.071Z,97.50
2018-05-15T02:20:02.610Z,97.80
2018-05-15T02:22:30.882Z,98.20
2018-05-15T02:24:59.171Z,97.80
2018-05-15T02:27:27.442Z,98.10
2018-05-15T02:29:55.759Z,98.00
2018-05-15T02:32:23.276Z,98.00
2018-05-15T02:34:50.817Z,98.70
2018-05-15T02:37:19.103Z,99.20
2018-05-15T02:39:47.404Z,99.90
2018-05-15T02:42:14.911Z,99.90
2018-05-15T02:44:42.447Z,99.90
2018-05-15T02:47:09.975Z,99.90
2018-05-15T02:49:37.512Z,99.90
2018-05-15T02:52:05.027Z,99.90
2018-05-15T02:54:32.554Z,99.90
2018-05-15T02:57:00.073Z,99.90
2018-05-15T02:59:28.373Z,99.90
2018-05-15T03:01:55.879Z,99.90
2018-05-15T03:04:23.414Z,99.90
2018-05-15T03:06:50.922Z,99.90
2018-05-15T03:09:18.462Z,99.90
2018-05-15T03:11:46.828Z,99.90
2018-05-15T03:14:14.278Z,99.90
2018-05-15T03:16:42.164Z,99.90
2018-05-15T03:19:10.067Z,99.90
2018-05-15T03:21:37.830Z,99.90
2018-05-15T03:24:05.656Z,99.90
2018-05-15T03:26:33.203Z,99.90
2018-05-15T03:29:01.499Z,99.90
2018-05-15T03:31:29.014Z,99.90
2018-05-15T03:33:57.331Z,99.90
2018-05-15T03:36:24.843Z,99.90
2018-05-15T03:38:52.366Z,99.90
2018-05-15T03:41:19.878Z,99.90
2018-05-15T03:43:47.683Z,99.90
2018-05-15T03:46:15.202Z,99.90
2018-05-15T03:48:43.495Z,99.90
2018-05-15T03:51:11.008Z,99.90
2018-05-15T03:53:38.706Z,99.90
2018-05-15T03:56:06.218Z,99.90
2018-05-15T03:58:33.754Z,99.90
2018-05-15T04:01:13.078Z,99.90
2018-05-15T04:03:52.351Z,99.90
2018-05-15T04:06:32.368Z,99.90
2018-05-15T04:08:59.902Z,99.90
2018-05-15T04:11:27.415Z,99.90
2018-05-15T04:13:56.048Z,99.90
2018-05-15T04:16:23.571Z,99.90
2018-05-15T04:18:51.933Z,99.90
2018-05-15T04:21:20.207Z,99.90
2018-05-15T04:23:48.511Z,99.90
2018-05-15T04:26:16.018Z,99.90
2018-05-15T04:28:43.555Z,99.90
2018-05-15T04:31:11.102Z,99.90
2018-05-15T04:33:38.634Z,99.90
2018-05-15T04:36:06.143Z,99.90
2018-05-15T04:38:33.651Z,99.90
2018-05-15T04:41:01.190Z,99.90
2018-05-15T04:43:28.725Z,99.90
2018-05-15T04:45:56.540Z,99.90
2018-05-15T04:48:24.043Z,99.90
2018-05-15T04:50:52.342Z,99.90
2018-05-15T04:53:19.854Z,99.90
2018-05-15T04:55:47.394Z,99.90
2018-05-15T04:58:14.920Z,99.90
2018-05-15T05:00:42.450Z,99.90
2018-05-15T05:03:10.724Z,99.90
2018-05-15T05:05:39.023Z,99.90
2018-05-15T05:08:06.531Z,99.90
2018-05-15T05:10:34.092Z,99.90
2018-05-15T05:13:01.618Z,99.90
2018-05-15T05:15:29.155Z,99.90
2018-05-15T05:17:56.666Z,99.90
2018-05-15T05:20:24.196Z,99.90
2018-05-15T05:22:51.706Z,99.90
2018-05-15T05:25:19.242Z,99.90
2018-05-15T05:27:47.527Z,99.90
2018-05-15T05:30:15.309Z,99.90
2018-05-15T05:32:42.831Z,99.90
2018-05-15T05:35:11.130Z,99.90
2018-05-15T05:37:38.919Z,99.90
2018-05-15T05:40:06.470Z,99.90
2018-05-15T05:42:33.988Z,99.90
2018-05-15T05:45:02.287Z,99.90
2018-05-15T05:47:29.799Z,99.90
2018-05-15T05:49:57.343Z,99.90
2018-05-15T05:52:24.854Z,99.90
2018-05-15T05:54:52.392Z,99.90
2018-05-15T05:57:19.932Z,99.90
2018-05-15T05:59:48.230Z,99.90
2018-05-15T06:02:15.754Z,99.90
2018-05-15T06:04:43.290Z,99.90
2018-05-15T06:07:11.137Z,99.90
2018-05-15T06:09:38.671Z,99.90
2018-05-15T06:12:06.178Z,99.90
2018-05-15T06:14:33.721Z,99.90
2018-05-15T06:17:01.674Z,99.90
2018-05-15T06:19:29.215Z,99.90
2018-05-15T06:21:56.742Z,99.90
2018-05-15T06:24:25.072Z,99.90
2018-05-15T06:26:53.639Z,99.90
2018-05-15T06:29:21.171Z,99.90
2018-05-15T06:31:48.685Z,99.90
2018-05-15T06:34:16.218Z,99.90
2018-05-15T06:36:43.762Z,99.90
2018-05-15T06:39:11.300Z,99.90
2018-05-15T06:41:38.820Z,99.90
2018-05-15T06:44:07.132Z,99.90
2018-05-15T06:46:34.743Z,99.90
2018-05-15T06:49:02.272Z,99.90
2018-05-15T06:51:29.814Z,99.90
2018-05-15T06:53:57.328Z,99.90
2018-05-15T06:56:25.156Z,99.90
2018-05-15T06:58:52.670Z,99.90
2018-05-15T07:01:20.210Z,99.90
2018-05-15T07:03:48.487Z,99.90
2018-05-15T07:06:16.043Z,99.90
2018-05-15T07:08:44.319Z,99.90
2018-05-15T07:11:11.855Z,99.90
2018-05-15T07:13:39.388Z,99.90
2018-05-15T07:16:06.928Z,99.90
2018-05-15T07:18:34.435Z,99.90
2018-05-15T07:21:02.726Z,99.90
2018-05-15T07:23:30.242Z,99.90
2018-05-15T07:25:57.779Z,99.90
2018-05-15T07:28:25.315Z,99.90
2018-05-15T07:30:52.853Z,99.90
2018-05-15T07:33:20.744Z,99.90
2018-05-15T07:35:48.292Z,99.90
2018-05-15T07:38:15.809Z,99.90
2018-05-15T07:40:44.111Z,99.90
2018-05-15T07:43:11.628Z,99.90
2018-05-15T07:45:39.164Z,99.90
2018-05-15T07:48:06.708Z,99.90
2018-05-15T07:50:35.018Z,99.90
2018-05-15T07:53:03.303Z,99.90
2018-05-15T07:55:31.598Z,99.90
2018-05-15T07:57:59.115Z,99.90
2018-05-15T08:00:26.646Z,99.90
2018-05-15T08:02:54.150Z,99.90
2018-05-15T08:05:22.448Z,99.90
2018-05-15T08:07:49.954Z,99.90
2018-05-15T08:13:28.910Z,99.90
2018-05-15T08:15:58.335Z,99.90
2018-05-15T08:18:25.851Z,99.90
2018-05-15T08:20:53.395Z,99.90
2018-05-15T08:23:20.918Z,99.60
2018-05-15T08:25:48.480Z,98.50
2018-05-15T08:28:15.999Z,98.10
2018-05-15T08:30:44.333Z,95.00
2018-05-15T08:33:11.836Z,94.90
2018-05-15T08:35:42.029Z,94.00
2018-05-15T08:38:09.547Z,93.30
2018-05-15T08:40:37.851Z,90.00
2018-05-15T08:43:05.383Z,89.90
2018-05-15T08:45:37.773Z,91.50
2018-05-15T08:48:05.290Z,90.10
2018-05-15T08:50:32.823Z,90.10
2018-05-15T08:53:00.347Z,88.90
2018-05-15T08:55:27.882Z,87.00
2018-05-15T08:57:55.404Z,86.30
2018-05-15T09:00:22.948Z,84.00
2018-05-15T09:02:50.475Z,82.30
2018-05-15T09:05:18.011Z,84.30
2018-05-15T09:07:46.297Z,81.40
2018-05-15T09:10:13.830Z,81.50
2018-05-15T09:12:41.347Z,78.40
2018-05-15T09:15:08.892Z,76.60
2018-05-15T09:17:37.179Z,78.20
2018-05-15T09:20:04.719Z,78.20
2018-05-15T09:22:32.996Z,69.70
2018-05-15T09:25:01.298Z,68.00
2018-05-15T09:27:28.811Z,67.90
2018-05-15T09:29:56.352Z,71.80
2018-05-15T09:32:23.879Z,67.70
2018-05-15T09:34:51.418Z,65.70
2018-05-15T09:37:18.937Z,63.80
2018-05-15T09:39:46.453Z,63.10
2018-05-15T09:42:13.989Z,66.20
2018-05-15T09:44:41.505Z,64.00
2018-05-15T09:47:09.048Z,63.50
2018-05-15T09:49:36.566Z,64.00
2018-05-15T09:52:04.105Z,64.20
2018-05-15T09:54:31.626Z,64.30
2018-05-15T09:56:59.158Z,64.10
2018-05-15T09:59:26.671Z,62.60
2018-05-15T10:01:54.218Z,61.10
2018-05-15T10:04:22.502Z,63.50
2018-05-15T10:06:50.060Z,63.50
2018-05-15T10:09:17.575Z,61.60
2018-05-15T10:11:45.120Z,60.30
2018-05-15T10:14:12.667Z,59.90
2018-05-15T10:16:40.195Z,61.50
2018-05-15T10:19:07.712Z,63.70
2018-05-15T10:21:35.248Z,65.10
2018-05-15T10:24:02.769Z,65.60
2018-05-15T10:26:30.309Z,64.60
2018-05-15T10:28:57.818Z,63.60
2018-05-15T10:31:25.362Z,62.70
2018-05-15T10:33:53.109Z,62.00
2018-05-15T10:36:20.662Z,60.90
2018-05-15T10:38:48.197Z,61.80
2018-05-15T10:41:15.734Z,58.80
2018-05-15T10:43:44.016Z,60.30
2018-05-15T10:46:12.317Z,61.00
2018-05-15T10:48:39.826Z,61.00
2018-05-15T10:51:07.372Z,59.10
2018-05-15T10:53:34.909Z,57.60
2018-05-15T10:56:02.440Z,57.70
2018-05-15T10:58:29.954Z,59.40
2018-05-15T11:00:58.264Z,57.20
2018-05-15T11:03:25.787Z,56.80
2018-05-15T11:05:54.090Z,59.60
2018-05-15T11:08:21.602Z,59.60
2018-05-15T11:10:49.143Z,58.50
2018-05-15T11:13:16.664Z,57.10
2018-05-15T11:15:44.215Z,56.50
2018-05-15T11:18:23.672Z,57.10
2018-05-15T11:21:03.101Z,56.00
2018-05-15T11:23:42.479Z,57.80
2018-05-15T11:26:10.014Z,61.10
2018-05-15T11:28:37.528Z,57.10
2018-05-15T11:31:05.062Z,56.70
2018-05-15T11:33:33.336Z,55.50
2018-05-15T11:36:01.664Z,55.20
2018-05-15T11:38:29.174Z,55.10
2018-05-15T11:40:57.470Z,56.60
2018-05-15T11:43:24.987Z,56.60
2018-05-15T11:45:52.539Z,54.80
2018-05-15T11:48:20.385Z,56.70
2018-05-15T11:50:49.155Z,58.70
2018-05-15T11:53:17.298Z,58.20
2018-05-15T11:55:44.226Z,58.10
2018-05-15T11:58:12.517Z,56.20
2018-05-15T12:00:40.063Z,56.20
2018-05-15T12:03:07.571Z,57.70
2018-05-15T12:05:35.111Z,57.30
2018-05-15T12:08:02.643Z,59.30
2018-05-15T12:10:30.190Z,58.80
2018-05-15T12:12:58.479Z,54.50
2018-05-15T12:15:25.996Z,54.40
2018-05-15T12:17:54.298Z,55.00
2018-05-15T12:20:21.879Z,55.10
2018-05-15T12:22:49.411Z,54.70
2018-05-15T12:25:16.922Z,54.00
2018-05-15T12:27:44.471Z,54.00
2018-05-15T12:30:11.984Z,52.00
2018-05-15T12:32:39.523Z,54.90
2018-05-15T12:35:07.828Z,56.10
2018-05-15T12:37:35.369Z,56.10
2018-05-15T12:40:02.882Z,55.00
2018-05-15T12:42:30.419Z,57.50
2018-05-15T12:44:58.054Z,56.20
2018-05-15T12:47:25.593Z,57.10
2018-05-15T12:49:53.116Z,56.80
2018-05-15T12:52:20.664Z,55.70
2018-05-15T12:54:48.195Z,54.70
2018-05-15T12:57:15.727Z,54.10
2018-05-15T12:59:43.270Z,53.30
2018-05-15T13:02:10.803Z,54.90
2018-05-15T13:04:39.078Z,55.90
2018-05-15T13:07:07.396Z,55.70
2018-05-15T13:09:34.906Z,55.70
2018-05-15T13:12:02.424Z,56.40
2018-05-15T13:14:30.722Z,54.90
2018-05-15T13:16:58.239Z,54.90
2018-05-15T13:19:25.775Z,55.20
2018-05-15T13:21:53.290Z,57.10
2018-05-15T13:24:20.913Z,56.20
2018-05-15T13:26:48.354Z,56.30
2018-05-15T13:29:15.895Z,55.70
2018-05-15T13:31:43.632Z,56.30
2018-05-15T13:34:11.739Z,56.00
2018-05-15T13:36:39.251Z,55.90
2018-05-15T13:39:06.790Z,55.30
2018-05-15T13:41:34.298Z,56.00
2018-05-15T13:44:01.827Z,54.30
2018-05-15T13:46:29.335Z,54.00
2018-05-15T13:48:56.890Z,53.80
2018-05-15T13:51:24.401Z,53.30
2018-05-15T13:53:52.698Z,53.60
2018-05-15T13:56:20.206Z,53.50
2018-05-15T13:58:47.747Z,54.80
2018-05-15T14:01:15.265Z,54.60
2018-05-15T14:03:42.817Z,53.20
2018-05-15T14:06:10.331Z,53.40
2018-05-15T14:08:37.877Z,53.20
2018-05-15T14:11:05.401Z,54.40
2018-05-15T14:13:32.929Z,56.30
2018-05-15T14:16:01.236Z,56.50
2018-05-15T14:18:28.752Z,56.40
2018-05-15T14:20:57.061Z,54.30
2018-05-15T14:23:24.579Z,54.30
2018-05-15T14:25:52.115Z,54.00
2018-05-15T14:28:19.627Z,54.70
2018-05-15T14:30:47.168Z,56.20
2018-05-15T14:33:15.439Z,55.20
2018-05-15T14:35:43.748Z,54.70
2018-05-15T14:38:11.259Z,54.70
2018-05-15T14:40:39.559Z,53.90
2018-05-15T14:43:27.902Z,53.90
2018-05-15T14:45:55.442Z,54.50
2018-05-15T14:48:23.720Z,53.70
2018-05-15T14:54:06.892Z,54.40
2018-05-15T14:56:34.439Z,54.30
2018-05-15T14:59:01.977Z,55.00
2018-05-15T15:01:29.519Z,54.30
2018-05-15T15:03:57.799Z,54.60
2018-05-15T15:06:26.106Z,55.80
2018-05-15T15:08:53.618Z,55.80
2018-05-15T15:11:21.936Z,55.10
2018-05-15T15:13:49.450Z,55.00
2018-05-15T15:16:17.761Z,56.20
2018-05-15T15:18:45.288Z,56.20
2018-05-15T15:21:13.594Z,55.90
2018-05-15T15:23:41.192Z,56.50
2018-05-15T15:26:08.675Z,56.70
2018-05-15T15:28:36.958Z,57.80
2018-05-15T15:31:04.492Z,57.80
2018-05-15T15:33:32.770Z,58.90
2018-05-15T15:36:00.319Z,58.80
2018-05-15T15:38:27.839Z,59.40
2018-05-15T15:40:55.383Z,58.80
2018-05-15T15:43:22.894Z,59.10
2018-05-15T15:45:51.199Z,59.90
2018-05-15T15:48:18.702Z,59.70
2018-05-15T15:50:46.219Z,60.50
2018-05-15T15:53:13.753Z,60.20
2018-05-15T15:55:41.270Z,60.40
2018-05-15T15:58:08.812Z,60.20
2018-05-15T16:00:36.349Z,61.50
2018-05-15T16:03:03.886Z,62.20
2018-05-15T16:05:31.425Z,61.50
2018-05-15T16:07:59.732Z,60.40
2018-05-15T16:10:27.235Z,60.30
2018-05-15T16:12:54.779Z,61.00
2018-05-15T16:15:22.295Z,61.10
2018-05-15T16:17:49.839Z,62.30
2018-05-15T16:20:17.354Z,63.60
2018-05-15T16:22:44.907Z,61.40
2018-05-15T16:25:12.431Z,61.90
2018-05-15T16:27:39.967Z,61.80
2018-05-15T16:30:07.495Z,62.20
2018-05-15T16:32:35.821Z,62.30
2018-05-15T16:35:03.343Z,62.10
2018-05-15T16:37:31.654Z,62.60
2018-05-15T16:39:59.175Z,62.60
2018-05-15T16:42:27.466Z,63.70
2018-05-15T16:44:54.984Z,63.70
2018-05-15T16:47:22.588Z,63.60
2018-05-15T16:49:50.823Z,64.70
2018-05-15T16:52:19.123Z,65.60
2018-05-15T16:54:46.704Z,65.60
2018-05-15T16:57:14.242Z,64.50
2018-05-15T16:59:41.756Z,64.30
2018-05-15T17:02:09.288Z,64.60
2018-05-15T17:04:36.802Z,64.90
2018-05-15T17:07:04.349Z,64.40
2018-05-15T17:09:31.872Z,65.50
2018-05-15T17:11:59.390Z,66.00
2018-05-15T17:14:26.918Z,66.50
2018-05-15T17:16:54.444Z,66.80
2018-05-15T17:19:21.975Z,67.40
2018-05-15T17:21:49.505Z,68.00
2018-05-15T17:24:17.064Z,68.50
2018-05-15T17:26:44.578Z,68.90
2018-05-15T17:29:12.884Z,68.90
2018-05-15T17:31:40.404Z,68.60
2018-05-15T17:34:07.970Z,68.60
2018-05-15T17:36:36.254Z,67.80
2018-05-15T17:39:04.562Z,69.10
2018-05-15T17:41:32.095Z,69.10
2018-05-15T17:43:59.684Z,71.90
2018-05-15T17:46:27.196Z,79.70
2018-05-15T17:48:55.509Z,86.10
2018-05-15T17:51:23.214Z,86.10
2018-05-15T17:53:50.753Z,90.30
2018-05-15T17:56:18.275Z,90.80
2018-05-15T17:58:45.828Z,91.30
2018-05-15T18:01:13.355Z,91.10
2018-05-15T18:03:41.674Z,93.10
2018-05-15T18:06:09.192Z,93.10
2018-05-15T18:08:36.771Z,93.90
2018-05-15T18:11:04.440Z,93.10
2018-05-15T18:13:32.743Z,94.40
2018-05-15T18:16:00.259Z,94.30
2018-05-15T18:18:27.804Z,96.20
2018-05-15T18:20:55.327Z,98.50
2018-05-15T18:23:22.867Z,99.90
2018-05-15T18:25:50.382Z,99.90
2018-05-15T18:28:17.920Z,99.90
2018-05-15T18:30:46.198Z,99.90
2018-05-15T18:33:13.743Z,99.90
2018-05-15T18:35:42.018Z,99.90
2018-05-15T18:38:10.328Z,99.90
2018-05-15T18:40:37.847Z,99.90
2018-05-15T18:43:05.395Z,99.90
2018-05-15T18:45:33.678Z,99.90
2018-05-15T18:48:01.988Z,99.90
2018-05-15T18:50:29.501Z,99.90
2018-05-15T18:52:57.815Z,99.90
2018-05-15T18:55:25.336Z,99.90
2018-05-15T18:57:53.716Z,99.90
2018-05-15T19:00:21.162Z,99.90
2018-05-15T19:02:49.468Z,99.90
2018-05-15T19:05:16.986Z,99.90
2018-05-15T19:07:44.515Z,99.90
2018-05-15T19:10:12.026Z,99.90
2018-05-15T19:12:39.567Z,99.90
2018-05-15T19:15:07.846Z,99.90
2018-05-15T19:17:36.146Z,99.90
2018-05-15T19:20:03.671Z,99.90
2018-05-15T19:22:31.987Z,99.90
2018-05-15T19:24:59.503Z,99.90
2018-05-15T19:27:27.785Z,99.90
2018-05-15T19:29:56.110Z,99.90
2018-05-15T19:32:29.303Z,99.90
2018-05-15T19:34:56.852Z,99.90
2018-05-15T19:37:24.367Z,99.90
2018-05-15T19:39:51.906Z,99.90
2018-05-15T19:42:20.181Z,99.90
2018-05-15T19:44:48.478Z,99.90
2018-05-15T19:47:15.986Z,99.90
2018-05-15T19:49:43.534Z,99.90
2018-05-15T19:52:11.063Z,99.90
2018-05-15T19:54:38.619Z,99.90
2018-05-15T19:57:06.154Z,99.90
2018-05-15T19:59:33.688Z,99.90
2018-05-15T20:02:01.968Z,99.90
2018-05-15T20:04:30.283Z,99.90
2018-05-15T20:06:57.805Z,99.90
2018-05-15T20:09:26.126Z,99.90
2018-05-15T20:11:53.648Z,99.90
2018-05-15T20:14:21.191Z,99.90
2018-05-15T20:16:49.466Z,99.90
2018-05-15T20:19:17.780Z,99.90
2018-05-15T20:21:45.308Z,99.90
2018-05-15T20:24:12.847Z,99.90
2018-05-15T20:26:41.469Z,99.90
2018-05-15T20:29:09.010Z,99.90
2018-05-15T20:31:36.552Z,99.90
2018-05-15T20:34:04.849Z,99.90
2018-05-15T20:36:32.386Z,99.90
2018-05-15T20:38:59.914Z,99.90
2018-05-15T20:41:27.423Z,99.90
2018-05-15T20:43:54.963Z,99.90
2018-05-15T20:46:22.499Z,99.90
2018-05-15T20:48:50.804Z,99.90
2018-05-15T20:51:18.317Z,99.90
2018-05-15T20:53:46.619Z,99.90
2018-05-15T20:56:14.136Z,99.90
2018-05-15T20:58:41.676Z,99.90
2018-05-15T21:01:09.202Z,99.90
2018-05-15T21:03:36.749Z,99.90
2018-05-15T21:06:04.274Z,99.90
2018-05-15T21:08:31.814Z,99.90
2018-05-15T21:10:59.339Z,99.90
2018-05-15T21:13:26.979Z,99.90
2018-05-15T21:15:54.494Z,99.90
2018-05-15T21:18:22.031Z,99.90
2018-05-15T21:20:49.534Z,99.90
2018-05-15T21:23:17.083Z,99.90
2018-05-15T21:25:45.359Z,99.90
2018-05-15T21:28:13.663Z,99.90
2018-05-15T21:30:41.179Z,99.90
2018-05-15T21:33:09.480Z,99.90
2018-05-15T21:35:37.001Z,99.90
2018-05-15T21:38:04.526Z,99.90
2018-05-15T21:40:32.073Z,99.90
2018-05-15T21:42:59.588Z,99.90
2018-05-15T21:45:27.131Z,99.90
2018-05-15T21:47:55.425Z,99.90
2018-05-15T21:50:22.971Z,99.90
2018-05-15T21:52:51.261Z,99.90
2018-05-15T21:55:18.799Z,99.90
2018-05-15T21:57:47.079Z,99.90
2018-05-15T22:00:15.386Z,99.90
2018-05-15T22:02:42.890Z,99.90
2018-05-15T22:05:10.426Z,99.90
2018-05-15T22:07:37.939Z,99.90
2018-05-15T22:10:05.475Z,99.90
2018-05-15T22:12:44.760Z,99.90
2018-05-15T22:15:24.187Z,99.90
2018-05-15T22:18:03.527Z,99.90
2018-05-15T22:20:42.928Z,99.90
2018-05-15T22:23:09.944Z,99.90
2018-05-15T22:25:38.243Z,99.90
2018-05-15T22:28:05.782Z,99.90
2018-05-15T22:30:34.091Z,99.90
2018-05-15T22:33:01.615Z,99.90
2018-05-15T22:35:29.910Z,99.90
2018-05-15T22:37:57.431Z,99.90
2018-05-15T22:40:25.735Z,99.90
2018-05-15T22:42:53.246Z,99.90
2018-05-15T22:45:20.775Z,99.90
2018-05-15T22:47:48.288Z,99.90
2018-05-15T22:50:16.594Z,99.90
2018-05-15T22:52:44.107Z,99.90
2018-05-15T22:55:12.408Z,99.90
2018-05-15T22:57:39.918Z,99.90
2018-05-15T23:00:07.457Z,99.90
2018-05-15T23:02:35.738Z,99.90
2018-05-15T23:05:03.291Z,99.90
2018-05-15T23:07:30.822Z,99.90
2018-05-15T23:09:58.361Z,99.90
2018-05-15T23:12:25.876Z,99.90
2018-05-15T23:14:53.411Z,99.90
2018-05-15T23:17:20.924Z,99.90
2018-05-15T23:19:48.462Z,99.90
2018-05-15T23:22:28.753Z,99.90
2018-05-15T23:24:56.290Z,99.90
2018-05-15T23:27:23.835Z,99.90
2018-05-15T23:29:52.134Z,99.90
2018-05-15T23:32:19.643Z,99.90
2018-05-15T23:34:47.193Z,99.90
2018-05-15T23:37:14.698Z,99.90
2018-05-15T23:39:42.231Z,99.90
2018-05-15T23:42:10.511Z,99.90
2018-05-15T23:44:38.815Z,99.90
2018-05-15T23:47:06.339Z,99.90
2018-05-15T23:49:34.638Z,99.90
2018-05-15T23:52:02.151Z,99.90
2018-05-15T23:54:29.682Z,99.90
2018-05-15T23:56:57.197Z,99.90
2018-05-15T23:59:24.737Z,99.90
